地図

経路データ

SID SEASON NUMBER BASIN SUBBASIN NAME ISO_TIME NATURE LAT LON WMO_WIND WMO_PRES WMO_AGENCY TRACK_TYPE DIST2LAND LANDFALL IFLAG USA_AGENCY USA_ATCF_ID USA_LAT USA_LON USA_RECORD USA_STATUS USA_WIND USA_PRES USA_SSHS USA_R34_NE USA_R34_SE USA_R34_SW USA_R34_NW USA_R50_NE USA_R50_SE USA_R50_SW USA_R50_NW USA_R64_NE USA_R64_SE USA_R64_SW USA_R64_NW USA_POCI USA_ROCI USA_RMW USA_EYE TOKYO_LAT TOKYO_LON TOKYO_GRADE TOKYO_WIND TOKYO_PRES TOKYO_R50_DIR TOKYO_R50_LONG TOKYO_R50_SHORT TOKYO_R30_DIR TOKYO_R30_LONG TOKYO_R30_SHORT TOKYO_LAND CMA_LAT CMA_LON CMA_CAT CMA_WIND CMA_PRES HKO_LAT HKO_LON HKO_CAT HKO_WIND HKO_PRES NEWDELHI_LAT NEWDELHI_LON NEWDELHI_GRADE NEWDELHI_WIND NEWDELHI_PRES NEWDELHI_CI NEWDELHI_DP NEWDELHI_POCI REUNION_LAT REUNION_LON REUNION_TYPE REUNION_WIND REUNION_PRES REUNION_TNUM REUNION_CI REUNION_RMW REUNION_R34_NE REUNION_R34_SE REUNION_R34_SW REUNION_R34_NW REUNION_R50_NE REUNION_R50_SE REUNION_R50_SW REUNION_R50_NW REUNION_R64_NE REUNION_R64_SE REUNION_R64_SW REUNION_R64_NW BOM_LAT BOM_LON BOM_TYPE BOM_WIND BOM_PRES BOM_TNUM BOM_CI BOM_RMW BOM_R34_NE BOM_R34_SE BOM_R34_SW BOM_R34_NW BOM_R50_NE BOM_R50_SE BOM_R50_SW BOM_R50_NW BOM_R64_NE BOM_R64_SE BOM_R64_SW BOM_R64_NW BOM_ROCI BOM_POCI BOM_EYE BOM_POS_METHOD BOM_PRES_METHOD NADI_LAT NADI_LON NADI_CAT NADI_WIND NADI_PRES WELLINGTON_LAT WELLINGTON_LON WELLINGTON_WIND WELLINGTON_PRES DS824_LAT DS824_LON DS824_STAGE DS824_WIND DS824_PRES TD9636_LAT TD9636_LON TD9636_STAGE TD9636_WIND TD9636_PRES TD9635_LAT TD9635_LON TD9635_WIND TD9635_PRES TD9635_ROCI NEUMANN_LAT NEUMANN_LON NEUMANN_CLASS NEUMANN_WIND NEUMANN_PRES MLC_LAT MLC_LON MLC_CLASS MLC_WIND MLC_PRES USA_GUST BOM_GUST BOM_GUST_PER REUNION_GUST REUNION_GUST_PER USA_SEAHGT USA_SEARAD_NE USA_SEARAD_SE USA_SEARAD_SW USA_SEARAD_NW STORM_SPEED STORM_DIR
1969316S08074 1970 110 SI MM CORINNE:CORRINE 1969-11-11 12:00:00 TS -7.50000 74.2000 reunion main 1657 1657 _____O______O_ -1 -7.50000 74.2000 2 9.90000 -7.50000 74.2000 TC 20 5 209
1969316S08074 1970 110 SI MM CORINNE:CORRINE 1969-11-11 15:00:00 TS -7.72999 74.0725 main 1682 1682 _____P______P_ -1 -7.72999 74.0725 2 -7.72999 74.0725 TC 22 5 216
1969316S08074 1970 110 SI MM CORINNE:CORRINE 1969-11-11 18:00:00 TS -7.90000 73.9000 reunion main 1711 1711 _____O______O_ -1 -7.90000 73.9000 99 9.90000 -7.90000 73.9000 TC 25 5 240
1969316S08074 1970 110 SI MM CORINNE:CORRINE 1969-11-11 21:00:00 TS -7.97252 73.6575 main 1731 1731 _____P______P_ -1 -7.97252 73.6575 99 -7.97252 73.6575 TC 27 5 259
1969316S08074 1970 110 SI MM CORINNE:CORRINE 1969-11-12 00:00:00 TS -8.00000 73.4000 reunion main 1745 1745 _____O______O_ -1 -8.00000 73.4000 99 9.90000 -8.00000 73.4000 TC 30 5 261
1969316S08074 1970 110 SI MM CORINNE:CORRINE 1969-11-12 03:00:00 TS -8.04247 73.2000 main 1755 1755 _____P______P_ -1 -8.04247 73.2000 99 -8.04247 73.2000 TC 30 4 256
1969316S08074 1970 110 SI MM CORINNE:CORRINE 1969-11-12 06:00:00 TS -8.10000 73.0000 reunion main 1775 1775 _____O______O_ -1 -8.10000 73.0000 99 9.90000 -8.10000 73.0000 TC 30 4 252
1969316S08074 1970 110 SI MM CORINNE:CORRINE 1969-11-12 09:00:00 TS -8.17747 72.7725 main 1795 1795 _____P______P_ -1 -8.17747 72.7725 99 -8.17747 72.7725 TC 40 5 248
1969316S08074 1970 110 SI MM CORINNE:CORRINE 1969-11-12 12:00:00 TS -8.30000 72.5000 reunion main 1821 1821 _____O______O_ -1 -8.30000 72.5000 3 9.90000 -8.30000 72.5000 TC 50 7 242
1969316S08074 1970 110 SI MM CORINNE:CORRINE 1969-11-12 15:00:00 TS -8.50752 72.1576 main 1856 1856 _____P______P_ -1 -8.50752 72.1576 3 -8.50752 72.1576 TC 40 8 240
1969316S08074 1970 110 SI MM CORINNE:CORRINE 1969-11-12 18:00:00 TS -8.70000 71.8000 reunion main 1898 1898 _____O______O_ -1 -8.70000 71.8000 99 9.90000 -8.70000 71.8000 TC 30 7 247
1969316S08074 1970 110 SI MM CORINNE:CORRINE 1969-11-12 21:00:00 TS -8.77994 71.4999 main 1924 1924 _____P______P_ -1 -8.77994 71.4999 99 -8.77994 71.4999 TC 30 6 260
1969316S08074 1970 110 SI MM CORINNE:CORRINE 1969-11-13 00:00:00 TS -8.80000 71.2000 reunion main 1925 1900 _____O______O_ -1 -8.80000 71.2000 99 9.90000 -8.80000 71.2000 TC 30 6 268
1969316S08074 1970 110 SI MM CORINNE:CORRINE 1969-11-13 03:00:00 TS -8.80749 70.8575 main 1900 1869 _____P______P_ -1 -8.80749 70.8575 99 -8.80749 70.8575 TC 30 7 270
1969316S08074 1970 110 SI MM CORINNE:CORRINE 1969-11-13 06:00:00 TS -8.80000 70.5000 reunion main 1869 1845 _____O______O_ -1 -8.80000 70.5000 99 9.90000 -8.80000 70.5000 TC 30 7 271
1969316S08074 1970 110 SI MM CORINNE:CORRINE 1969-11-13 09:00:00 TS -8.79995 70.1575 main 1845 1814 _____P______P_ -1 -8.79995 70.1575 99 -8.79995 70.1575 TC 30 7 270
1969316S08074 1970 110 SI MM CORINNE:CORRINE 1969-11-13 12:00:00 TS -8.80000 69.8000 reunion main 1814 1783 _____O______O_ -1 -8.80000 69.8000 2 9.90000 -8.80000 69.8000 TC 30 8 270
1969316S08074 1970 110 SI MM CORINNE:CORRINE 1969-11-13 15:00:00 TS -8.80002 69.3925 main 1783 1753 _____P______P_ -1 -8.80002 69.3925 2 -8.80002 69.3925 TC 30 8 270
1969316S08074 1970 110 SI MM CORINNE:CORRINE 1969-11-13 18:00:00 TS -8.80000 69.0000 reunion main 1753 1731 _____O______O_ -1 -8.80000 69.0000 99 9.90000 -8.80000 69.0000 TC 30 7 270
1969316S08074 1970 110 SI MM CORINNE:CORRINE 1969-11-13 21:00:00 TS -8.79992 68.6925 main 1731 1709 _____P______P_ -1 -8.79992 68.6925 99 -8.79992 68.6925 TC 30 6 270
1969316S08074 1970 110 SI MM CORINNE:CORRINE 1969-11-14 00:00:00 TS -8.80000 68.4000 reunion main 1709 1688 _____O______O_ -1 -8.80000 68.4000 99 9.90000 -8.80000 68.4000 TC 30 6 269
1969316S08074 1970 110 SI MM CORINNE:CORRINE 1969-11-14 03:00:00 TS -8.81499 68.0575 main 1688 1660 _____P______P_ -1 -8.81499 68.0575 99 -8.81499 68.0575 TC 30 7 270
1969316S08074 1970 110 SI MM CORINNE:CORRINE 1969-11-14 06:00:00 TS -8.80000 67.7000 reunion main 1660 1646 _____O______O_ -1 -8.80000 67.7000 99 9.90000 -8.80000 67.7000 TC 30 7 277
1969316S08074 1970 110 SI MM CORINNE:CORRINE 1969-11-14 09:00:00 TS -8.72984 67.3876 main 1648 1627 _____P______P_ -1 -8.72984 67.3876 99 -8.72984 67.3876 TC 30 7 286
1969316S08074 1970 110 SI MM CORINNE:CORRINE 1969-11-14 12:00:00 TS -8.60000 67.0000 reunion main 1630 1613 _____O______O_ -1 -8.60000 67.0000 2 9.90000 -8.60000 67.0000 TC 30 10 290
1969316S08074 1970 110 SI MM CORINNE:CORRINE 1969-11-14 15:00:00 TS -8.38509 66.4298 main 1609 1592 _____P______P_ -1 -8.38509 66.4298 2 -8.38509 66.4298 TC 30 13 289
1969316S08074 1970 110 SI MM CORINNE:CORRINE 1969-11-14 18:00:00 TS -8.20000 65.8000 reunion main 1592 1563 _____O______O_ -1 -8.20000 65.8000 99 9.90000 -8.20000 65.8000 TC 30 12 281
1969316S08074 1970 110 SI MM CORINNE:CORRINE 1969-11-14 21:00:00 TS -8.16980 65.2651 main 1563 1530 _____P______P_ -1 -8.16980 65.2651 99 -8.16980 65.2651 TC 30 11 270
1969316S08074 1970 110 SI MM CORINNE:CORRINE 1969-11-15 00:00:00 TS -8.20000 64.7000 reunion main 1530 1499 _____O______O_ -1 -8.20000 64.7000 99 9.90000 -8.20000 64.7000 TC 30 12 269
1969316S08074 1970 110 SI MM CORINNE:CORRINE 1969-11-15 03:00:00 TS -8.18503 64.0149 main 1494 1462 _____P______P_ -1 -8.18503 64.0149 99 -8.18503 64.0149 TC 30 14 270
1969316S08074 1970 110 SI MM CORINNE:CORRINE 1969-11-15 06:00:00 TS -8.20000 63.3000 reunion main 1462 1426 _____O______O_ -1 -8.20000 63.3000 99 9.90000 -8.20000 63.3000 TC 30 14 266
1969316S08074 1970 110 SI MM CORINNE:CORRINE 1969-11-15 09:00:00 TS -8.26989 62.6350 main 1422 1389 _____P______P_ -1 -8.26989 62.6350 99 -8.26989 62.6350 TC 30 13 261
1969316S08074 1970 110 SI MM CORINNE:CORRINE 1969-11-15 12:00:00 TS -8.40000 62.0000 reunion main 1389 1347 _____O______O_ -1 -8.40000 62.0000 2 9.90000 -8.40000 62.0000 TC 30 13 255
1969316S08074 1970 110 SI MM CORINNE:CORRINE 1969-11-15 15:00:00 TS -8.59994 61.3776 main 1347 1280 _____P______P_ -1 -8.59994 61.3776 2 -8.59994 61.3776 TC 30 13 251
1969316S08074 1970 110 SI MM CORINNE:CORRINE 1969-11-15 18:00:00 TS -8.80000 60.8000 reunion main 1280 1225 _____O______O_ -1 -8.80000 60.8000 99 9.90000 -8.80000 60.8000 TC 30 11 255
1969316S08074 1970 110 SI MM CORINNE:CORRINE 1969-11-15 21:00:00 TS -8.88473 60.3147 main 1225 1170 _____P______P_ -1 -8.88473 60.3147 99 -8.88473 60.3147 TC 30 10 259
1969316S08074 1970 110 SI MM CORINNE:CORRINE 1969-11-16 00:00:00 TS -9.00000 59.8000 reunion main 1170 1096 _____O______O_ -1 -9.00000 59.8000 99 9.90000 -9.00000 59.8000 TC 30 12 250
1969316S08074 1970 110 SI MM CORINNE:CORRINE 1969-11-16 03:00:00 TS -9.30002 59.1303 main 1086 1002 _____P______P_ -1 -9.30002 59.1303 99 -9.30002 59.1303 TC 30 15 247
1969316S08074 1970 110 SI MM CORINNE:CORRINE 1969-11-16 06:00:00 TS -9.60000 58.4000 reunion main 1002 927 _____O______O_ -1 -9.60000 58.4000 99 9.90000 -9.60000 58.4000 TC 30 15 254
1969316S08074 1970 110 SI MM CORINNE:CORRINE 1969-11-16 09:00:00 TS -9.73009 57.6548 main 927 853 _____P______P_ -1 -9.73009 57.6548 99 -9.73009 57.6548 TC 30 14 262
1969316S08074 1970 110 SI MM CORINNE:CORRINE 1969-11-16 12:00:00 TS -9.80000 57.0000 reunion main 853 808 _____O______O_ -1 -9.80000 57.0000 2 9.90000 -9.80000 57.0000 TC 30 11 260
1969316S08074 1970 110 SI MM CORINNE:CORRINE 1969-11-16 15:00:00 TS -9.91469 56.5700 main 808 774 _____P______P_ -1 -9.91469 56.5700 2 -9.91469 56.5700 TC 30 7 252
1969316S08074 1970 110 SI MM CORINNE:CORRINE 1969-11-16 18:00:00 TS -10.0273 56.2818 reunion main 774 730 O____O___OO_O_ jtwc_sh SH041970 -10.1000 56.5000 -1 -10.0000 56.2000 99 9.90000 -10.1000 56.5000 TC -10.1000 56.5000 7 -10.0000 56.2000 TC 30 6 258
1969316S08074 1970 110 SI MM CORINNE:CORRINE 1969-11-16 21:00:00 TS -10.0528 55.9266 main 730 701 P____P___PP_P_ SH041970 -10.1000 56.2250 -1 -10.0150 55.7149 99 -10.1000 56.2250 TC -10.1094 56.1768 7 -10.0150 55.7149 TC 30 7 268
1969316S08074 1970 110 SI MM CORINNE:CORRINE 1969-11-17 00:00:00 TS -10.0556 55.5587 reunion main 701 662 O____O___OP_O_ jtwc_sh SH041970 -10.1000 55.9000 -1 -10.0000 55.2000 99 9.90000 -10.1000 55.9000 TC -10.1150 55.8328 7 -10.0000 55.2000 TC 30 8 269
1969316S08074 1970 110 SI MM CORINNE:CORRINE 1969-11-17 03:00:00 TS -10.0626 55.1645 main 662 615 P____P___PP_P_ SH041970 -10.1000 55.4875 -1 -9.99993 54.7000 99 -10.1000 55.4875 TC -10.1131 55.4474 7 -9.99993 54.7000 TC 30 9 270
1969316S08074 1970 110 SI MM CORINNE:CORRINE 1969-11-17 06:00:00 TS -10.0600 54.6800 reunion main 615 570 O____O___OO_O_ jtwc_sh SH041970 -10.1000 55.0000 -1 -10.0000 54.2000 99 9.90000 -10.1000 55.0000 TC 35 -10.1000 55.0000 2 -10.0000 54.2000 TC 30 10 270
1969316S08074 1970 110 SI MM CORINNE:CORRINE 1969-11-17 09:00:00 TS -10.0551 54.1643 main 570 515 P____P___PP_P_ SH041970 -10.0999 54.4800 -1 -9.99996 53.6925 99 -10.0999 54.4800 TC 30 -10.0756 54.4764 2 -9.99996 53.6925 TC 30 10 270
1969316S08074 1970 110 SI MM CORINNE:CORRINE 1969-11-17 12:00:00 TS -10.0510 53.6179 reunion main 515 473 O____O___OP_O_ jtwc_sh SH041970 -10.1000 53.9000 -1 -10.0000 53.2000 2 9.90000 -10.1000 53.9000 TC 25 -10.0549 53.8893 2 -10.0000 53.2000 TC 30 11 271
1969316S08074 1970 110 SI MM CORINNE:CORRINE 1969-11-17 15:00:00 TS -10.0453 53.0485 main 463 412 P____P___PP_P_ SH041970 -10.0849 53.2724 -1 -9.99999 52.7200 2 -10.0849 53.2724 TC 25 -10.0568 53.2575 2 -9.99999 52.7200 TC 30 11 270
1969316S08074 1970 110 SI MM CORINNE:CORRINE 1969-11-17 18:00:00 TS -10.0600 52.4800 reunion main 412 368 O____O___OO_O_ jtwc_sh SH041970 -10.1000 52.6000 -1 -10.0000 52.3000 99 9.90000 -10.1000 52.6000 TC 25 -10.1000 52.6000 1 -10.0000 52.3000 TC 30 11 267
1969316S08074 1970 110 SI MM CORINNE:CORRINE 1969-11-17 21:00:00 TS -10.1069 51.9431 main 360 312 P____P___PP_P_ SH041970 -10.1699 51.9000 -1 -9.99986 51.9925 99 -10.1699 51.9000 TC 25 -10.1947 51.9305 1 -9.99986 51.9925 TC 30 11 263
1969316S08074 1970 110 SI MM CORINNE:CORRINE 1969-11-18 00:00:00 TS -10.1865 51.4085 reunion main 312 266 O____O___OP_O_ jtwc_sh SH041970 -10.3000 51.2000 -1 -10.0000 51.7000 99 9.90000 -10.3000 51.2000 TC 25 -10.3326 51.2426 1 -10.0000 51.7000 TC 30 11 260
1969316S08074 1970 110 SI MM CORINNE:CORRINE 1969-11-18 03:00:00 TS -10.2918 50.8547 main 266 219 P____P___PP_P_ SH041970 -10.4774 50.5350 -1 -9.99997 51.3225 99 -10.4774 50.5350 TC 25 -10.5041 50.5584 1 -9.99997 51.3225 TC 32 11 258
1969316S08074 1970 110 SI MM CORINNE:CORRINE 1969-11-18 06:00:00 TS -10.4200 50.3000 reunion main 219 187 O____O___OO_O_ jtwc_sh SH041970 -10.7000 49.9000 -1 -10.0000 50.9000 99 9.90000 -10.7000 49.9000 TC 25 -10.7000 49.9000 1 -10.0000 50.9000 TC 35 11 256
1969316S08074 1970 110 SI MM CORINNE:CORRINE 1969-11-18 09:00:00 TS -10.5554 49.7588 main 176 156 P____P___PP_P_ SH041970 -10.9499 49.2850 -1 -9.98487 50.4799 99 -10.9499 49.2850 TC 25 -10.9073 49.2640 1 -9.98487 50.4799 TC 35 11 255
1969316S08074 1970 110 SI MM CORINNE:CORRINE 1969-11-18 12:00:00 TS -10.7070 49.2121 reunion main 156 147 O____O___OP_O_ jtwc_sh SH041970 -11.2000 48.7000 -1 -10.0000 50.0000 3 9.90000 -11.2000 48.7000 TC 25 -11.1348 48.6603 1 -10.0000 50.0000 TC 35 11 255
1969316S08074 1970 110 SI MM CORINNE:CORRINE 1969-11-18 15:00:00 TS -10.8590 48.6372 main 149 149 P____P___PP_P_ SH041970 -11.4075 48.1199 -1 -10.0550 49.4224 3 -11.4075 48.1199 TC 25 -11.3699 48.1014 1 -10.0550 49.4224 TC 37 12 253
1969316S08074 1970 110 SI MM CORINNE:CORRINE 1969-11-18 18:00:00 TS -11.0400 48.0800 reunion main 171 164 O____O___OO_O_ jtwc_sh SH041970 -11.6000 47.6000 -1 -10.2000 48.8000 99 9.90000 -11.6000 47.6000 TC 25 -11.6000 47.6000 1 -10.2000 48.8000 TC 40 11 248
1969316S08074 1970 110 SI MM CORINNE:CORRINE 1969-11-18 21:00:00 TS -11.2743 47.5909 main 187 187 P____P___PP_P_ SH041970 -11.7999 47.1699 -1 -10.4848 48.2076 99 -11.7999 47.1699 TC 25 -11.8022 47.1994 1 -10.4848 48.2076 TC 40 11 243
1969316S08074 1970 110 SI MM CORINNE:CORRINE 1969-11-19 00:00:00 TS -11.5197 47.1298 reunion main 216 210 O____O___OP_O_ jtwc_sh SH041970 -12.0000 46.8000 -1 -10.8000 47.6000 99 9.90000 -12.0000 46.8000 TC 25 -11.9987 46.8491 1 -10.8000 47.6000 TC 40 10 244
1969316S08074 1970 110 SI MM CORINNE:CORRINE 1969-11-19 03:00:00 TS -11.7101 46.6716 main 245 245 P____P___PP_P_ SH041970 -12.1923 46.4723 -1 -10.9849 46.9571 99 -12.1923 46.4723 TC 30 -12.1959 46.4993 1 -10.9849 46.9571 TC 42 10 247
1969316S08074 1970 110 SI MM CORINNE:CORRINE 1969-11-19 06:00:00 TS -11.9200 46.1800 reunion main 272 272 O____O___OO_O_ jtwc_sh SH041970 -12.4000 46.1000 -1 -11.2000 46.3000 99 9.90000 -12.4000 46.1000 TC 35 -12.4000 46.1000 2 -11.2000 46.3000 TC 45 12 244
1969316S08074 1970 110 SI MM CORINNE:CORRINE 1969-11-19 09:00:00 TS -12.2337 45.5971 main 300 294 P____P___PP_P_ SH041970 -12.6500 45.5875 -1 -11.6150 45.6279 99 -12.6500 45.5875 TC 35 -12.6387 45.5546 2 -11.6150 45.6279 TC 45 13 242
1969316S08074 1970 110 SI MM CORINNE:CORRINE 1969-11-19 12:00:00 TS -12.5362 44.9916 reunion main 341 341 O____O___OP_O_ jtwc_sh SH041970 -12.9000 45.0000 -1 -12.0000 45.0000 3 9.90000 -12.9000 45.0000 TC 35 -12.8808 44.9582 2 -12.0000 45.0000 TC 45 13 247
1969316S08074 1970 110 SI MM CORINNE:CORRINE 1969-11-19 15:00:00 TS -12.7254 44.4134 main 377 358 P____P___PP_P_ SH041970 -13.1151 44.3775 -1 -12.1448 44.4772 3 -13.1151 44.3775 TC 35 -13.1074 44.3577 2 -12.1448 44.4772 TC 42 11 253
1969316S08074 1970 110 SI MM CORINNE:CORRINE 1969-11-19 18:00:00 TS -12.8600 43.8800 reunion main 358 315 O____O___OO_O_ jtwc_sh SH041970 -13.3000 43.8000 -1 -12.2000 44.0000 99 9.90000 -13.3000 43.8000 TC 35 -13.3000 43.8000 2 -12.2000 44.0000 TC 40 10 254
1969316S08074 1970 110 SI MM CORINNE:CORRINE 1969-11-19 21:00:00 TS -12.9981 43.4324 main 304 262 P____P___PP_P_ SH041970 -13.4723 43.3699 -1 -12.2999 43.5000 99 -13.4723 43.3699 TC 35 -13.4464 43.4222 2 -12.2999 43.5000 TC 40 9 253
1969316S08074 1970 110 SI MM CORINNE:CORRINE 1969-11-20 00:00:00 TS -13.1115 43.0163 reunion main 262 217 O____O___OP_O_ jtwc_sh SH041970 -13.6000 43.0000 -1 -12.4000 43.0000 99 9.90000 -13.6000 43.0000 TC 35 -13.5574 43.0817 2 -12.4000 43.0000 TC 40 8 256
1969316S08074 1970 110 SI MM CORINNE:CORRINE 1969-11-20 03:00:00 TS -13.1968 42.5980 main 217 162 P____P___PP_P_ SH041970 -13.6647 42.6449 -1 -12.5074 42.5000 99 -13.6647 42.6449 TC 35 -13.6398 42.7004 2 -12.5074 42.5000 TC 37 9 260
1969316S08074 1970 110 SI MM CORINNE:CORRINE 1969-11-20 06:00:00 TS -13.2600 42.1200 reunion main 162 108 O____O___OO_O_ jtwc_sh SH041970 -13.7000 42.2000 -1 -12.6000 42.0000 99 9.90000 -13.7000 42.2000 TC 35 -13.7000 42.2000 2 -12.6000 42.0000 TC 35 10 263
1969316S08074 1970 110 SI MM CORINNE:CORRINE 1969-11-20 09:00:00 TS -13.3175 41.5376 main 98 34 P____P___PP_P_ SH041970 -13.7572 41.5900 -1 -12.6649 41.4925 99 -13.7572 41.5900 TC 35 -13.7432 41.5232 2 -12.6649 41.4925 TC 35 12 269
1969316S08074 1970 110 SI MM CORINNE:CORRINE 1969-11-20 12:00:00 TS -13.2775 40.8761 reunion main 34 0 O____O___OP_O_ jtwc_sh SH041970 -13.8000 40.8000 -1 -12.7000 41.0000 3 9.90000 -13.8000 40.8000 TC 35 -13.7723 40.6978 2 -12.7000 41.0000 TC 35 13 276
1969316S08074 1970 110 SI MM CORINNE:CORRINE 1969-11-20 15:00:00 TS -13.1774 40.2290 main 0 0 P____P___PP_P_ SH041970 -13.8110 39.8450 -1 -12.7074 40.5350 3 -13.8110 39.8450 TC 35 -13.7901 39.7735 2 -12.7074 40.5350 TC 32 11 284
1969316S08074 1970 110 SI MM CORINNE:CORRINE 1969-11-20 18:00:00 TS -13.0000 39.7455 reunion main 0 0 O____O___OO_O_ jtwc_sh SH041970 -13.8000 38.8000 -1 -12.7000 40.1000 99 9.90000 -13.8000 38.8000 TC 35 -13.8000 38.8000 2 -12.7000 40.1000 TC 30 7 312
1969316S08074 1970 110 SI MM CORINNE:CORRINE 1969-11-20 21:00:00 TS -12.7074 39.7000 main 0 0 _____P______P_ SH041970 -1 -12.7074 39.7000 99 TC 2 -12.7074 39.7000 TC 30 5 305
1969316S08074 1970 110 SI MM CORINNE:CORRINE 1969-11-21 00:00:00 TS -12.7000 39.3000 reunion main 0 0 _____O______O_ -1 -12.7000 39.3000 99 9.90000 2 -12.7000 39.3000 TC 30 8 272
1969316S08074 1970 110 SI MM CORINNE:CORRINE 1969-11-21 03:00:00 TS -12.6726 38.8350 main 0 0 _____P______P_ -1 -12.6726 38.8350 99 2 -12.6726 38.8350 TC 27 9 276
1969316S08074 1970 110 SI MM CORINNE:CORRINE 1969-11-21 06:00:00 TS -12.6000 38.4000 reunion main 0 0 _____O______O_ -1 -12.6000 38.4000 99 9.90000 -12.6000 38.4000 TC 25 8 285
1969316S08074 1970 110 SI MM CORINNE:CORRINE 1969-11-21 09:00:00 TS -12.4675 38.0674 main 0 0 _____P______P_ -1 -12.4675 38.0674 99 -12.4675 38.0674 TC 22 7 297
1969316S08074 1970 110 SI MM CORINNE:CORRINE 1969-11-21 12:00:00 TS -12.3000 37.8000 reunion main 0 _____O______O_ -1 -12.3000 37.8000 6 9.90000 -12.3000 37.8000 TC 20 6 303

IBTrACS Databaseについて

本データベースは、米国NOAAが公開する1842年以降の世界の熱帯低気圧のベストトラックデータアーカイブInternational Best Track Archive for Climate Stewardship (IBTrACS)を、ウェブで閲覧しやすい形式に変換したものです。

最終更新日:2021-10-25